createdAt,value
2023-04-25T16:33:48.185Z,18.90
2023-04-25T16:34:00.452Z,20.10
2023-04-25T16:34:09.829Z,24.50
2023-04-25T16:34:20.344Z,34.40
2023-04-25T16:34:29.906Z,35.50
2023-04-25T16:34:39.813Z,28.70
2023-04-25T16:34:49.982Z,17.30
2023-04-25T16:35:02.707Z,13.80
2023-04-25T16:35:10.231Z,13.80
2023-04-25T16:35:30.365Z,9.60
2023-04-25T16:35:40.536Z,8.50
2023-04-25T16:35:50.611Z,8.30
2023-04-25T16:36:01.686Z,8.10
2023-04-25T16:36:10.944Z,7.10
2023-04-25T16:36:20.951Z,6.30
2023-04-25T16:36:31.114Z,5.70
2023-04-25T16:36:41.308Z,5.60
2023-04-25T16:36:51.334Z,5.50
2023-04-25T16:37:12.215Z,6.60
2023-04-25T16:37:22.685Z,8.40
2023-04-25T16:37:31.973Z,9.90
2023-04-25T16:37:41.869Z,9.50
2023-04-25T16:37:52.064Z,7.90
2023-04-25T16:38:02.224Z,7.40
2023-04-25T16:38:13.450Z,8.60
2023-04-25T16:38:23.469Z,9.70
2023-04-25T16:38:32.583Z,10.20
2023-04-25T16:38:42.679Z,11.30
2023-04-25T16:38:53.200Z,21.90
2023-04-25T16:39:03.063Z,25.60
2023-04-25T16:39:23.160Z,16.80
2023-04-25T16:39:33.388Z,15.00
2023-04-25T16:39:43.560Z,32.20
2023-04-25T16:39:53.561Z,30.20
2023-04-25T16:40:03.700Z,28.90
2023-04-25T16:40:13.791Z,10.40
2023-04-25T16:40:23.934Z,11.20
2023-04-25T16:40:35.066Z,10.80
2023-04-25T16:40:44.295Z,10.00
2023-04-25T16:40:54.356Z,9.30
2023-04-25T16:41:04.443Z,8.10
2023-04-25T16:41:14.527Z,7.20
2023-04-25T16:41:24.844Z,6.10
2023-04-25T16:41:45.092Z,9.50
2023-04-25T16:41:55.232Z,11.20
2023-04-25T16:42:05.341Z,10.90
2023-04-25T16:42:15.430Z,8.50
2023-04-25T16:42:25.424Z,6.90
2023-04-25T16:42:35.479Z,6.90
2023-04-25T16:42:45.730Z,6.80
2023-04-25T16:42:56.646Z,7.00
2023-04-25T16:43:06.594Z,6.40
2023-04-25T16:43:16.351Z,6.40
2023-04-25T16:43:26.289Z,6.60
2023-04-25T16:43:37.159Z,7.40
2023-04-25T16:43:46.437Z,8.10
2023-04-25T16:43:57.738Z,8.20
2023-04-25T16:44:06.989Z,7.60
2023-04-25T16:44:16.992Z,7.20
2023-04-25T16:44:26.881Z,7.00
2023-04-25T16:44:47.298Z,8.20
2023-04-25T16:44:57.176Z,9.30
2023-04-25T16:45:07.455Z,10.00
2023-04-25T16:45:17.688Z,10.50
2023-04-25T16:45:27.568Z,10.60
2023-04-25T16:45:38.093Z,10.10
2023-04-25T16:45:55.217Z,9.50
2023-04-25T16:46:01.342Z,8.20
2023-04-25T16:46:11.534Z,7.90
2023-04-25T16:46:22.556Z,8.20
2023-04-25T16:46:31.952Z,7.70
2023-04-25T16:46:42.782Z,7.70
2023-04-25T16:47:02.242Z,7.10
2023-04-25T16:47:15.675Z,6.90
2023-04-25T16:47:23.954Z,7.00
2023-04-25T16:47:33.069Z,6.90
2023-04-25T16:47:43.164Z,6.90
2023-04-25T16:47:53.312Z,7.00
2023-04-25T16:48:03.747Z,7.30
2023-04-25T16:48:14.437Z,7.10
2023-04-25T16:48:33.921Z,6.60
2023-04-25T16:48:43.907Z,6.50
2023-04-25T16:48:54.127Z,9.20
2023-04-25T16:49:04.233Z,13.40
2023-04-25T16:49:14.254Z,20.60
2023-04-25T16:49:25.065Z,18.30
2023-04-25T16:49:34.476Z,13.60
2023-04-25T16:49:44.639Z,6.50
2023-04-25T16:49:54.807Z,5.90
2023-04-25T16:50:04.922Z,5.90
2023-04-25T16:50:15.086Z,5.60
2023-04-25T16:50:25.101Z,5.90
2023-04-25T16:50:36.110Z,6.60
2023-04-25T16:50:45.353Z,7.20
2023-04-25T16:50:55.523Z,7.20
2023-04-25T16:51:05.577Z,7.70
2023-04-25T16:51:15.635Z,9.00
2023-04-25T16:51:25.792Z,11.10
2023-04-25T16:51:46.179Z,18.10
2023-04-25T16:51:56.197Z,17.80
2023-04-25T16:52:06.219Z,11.70
2023-04-25T16:52:16.767Z,10.90
2023-04-25T16:52:26.462Z,11.10
2023-04-25T16:52:36.663Z,11.10
2023-04-25T16:52:46.649Z,11.50
2023-04-25T16:52:56.951Z,10.20
2023-04-25T16:53:07.092Z,10.80
2023-04-25T16:53:17.032Z,10.80
2023-04-25T16:53:28.007Z,11.30
2023-04-25T16:53:37.308Z,9.20
2023-04-25T16:53:47.717Z,10.60
2023-04-25T16:53:58.698Z,17.60
2023-04-25T16:54:07.785Z,26.30
2023-04-25T16:54:17.778Z,28.30
2023-04-25T16:54:38.239Z,23.40
